Time;durP1;ratioP1;P1;durP2;ratioP2;P2;SDS_P1;SDS_P2;PMS_P1;PMS_P2;Temp;Humidity;BMP_temperature;BMP_pressure;BME280_temperature;BME280_humidity;BME280_pressure;Samples;Min_cycle;Max_cycle;Signal;HPM_P1;HPM_P2
2023/05/27 00:01:59;;;;;;;11.90;3.17;;;12.40;99.90;;;;;;4957854;28;20958;-88
2023/05/27 00:04:24;;;;;;;5.07;2.53;;;12.50;99.90;;;;;;4937433;28;21104;-87
2023/05/27 00:06:50;;;;;;;6.30;2.80;;;12.50;99.90;;;;;;4955881;28;20285;-86
2023/05/27 00:09:16;;;;;;;4.83;2.53;;;12.40;99.90;;;;;;4949531;28;20751;-85
2023/05/27 00:11:41;;;;;;;5.57;2.60;;;12.30;99.90;;;;;;4952017;28;20242;-88
2023/05/27 00:14:07;;;;;;;11.57;3.33;;;;;;;;;;4950039;28;20820;-88
2023/05/27 00:16:35;;;;;;;11.10;2.70;;;12.20;99.90;;;;;;4944733;28;20219;-88
2023/05/27 00:19:01;;;;;;;9.95;4.28;;;12.20;99.90;;;;;;4940729;28;20562;-87
2023/05/27 00:21:27;;;;;;;12.30;3.50;;;12.10;99.90;;;;;;4941957;28;20296;-88
2023/05/27 00:23:52;;;;;;;4.87;2.93;;;12.00;99.90;;;;;;4953665;28;20213;-88
2023/05/27 00:26:18;;;;;;;6.17;2.60;;;12.00;99.90;;;;;;4955598;28;20211;-89
2023/05/27 00:28:43;;;;;;;7.40;2.60;;;11.90;99.90;;;;;;4961598;28;20228;-89
2023/05/27 00:31:09;;;;;;;7.33;3.10;;;11.80;99.90;;;;;;4955860;28;20575;-88
2023/05/27 00:33:34;;;;;;;9.90;3.13;;;11.90;99.90;;;;;;4960307;28;20274;-89
2023/05/27 00:36:00;;;;;;;5.90;2.97;;;11.90;99.90;;;;;;4960444;28;20195;-88
2023/05/27 00:38:25;;;;;;;8.23;3.67;;;11.90;99.90;;;;;;4968067;28;20211;-89
2023/05/27 00:40:53;;;;;;;8.40;3.23;;;12.00;99.90;;;;;;4960568;28;20191;-88
2023/05/27 00:43:19;;;;;;;5.00;2.60;;;12.20;99.90;;;;;;4957663;28;20211;-88
2023/05/27 00:45:44;;;;;;;13.17;2.60;;;12.20;99.90;;;;;;4957834;28;21163;-88
2023/05/27 00:48:10;;;;;;;5.77;2.23;;;12.30;99.90;;;;;;4946881;28;20451;-88
2023/05/27 00:50:36;;;;;;;8.30;3.45;;;12.30;99.90;;;;;;4961843;28;20643;-87
2023/05/27 00:53:02;;;;;;;10.03;3.43;;;12.40;99.90;;;;;;4964536;28;20326;-88
2023/05/27 00:55:28;;;;;;;8.10;3.00;;;12.50;99.90;;;;;;4960847;28;20259;-88
2023/05/27 00:57:54;;;;;;;10.57;2.80;;;12.60;99.90;;;;;;4956332;28;20455;-88
2023/05/27 01:00:23;;;;;;;8.23;3.47;;;12.70;99.90;;;;;;4947997;28;20821;-88
2023/05/27 01:02:50;;;;;;;8.87;2.67;;;12.70;99.90;;;;;;4951270;28;20183;-88
2023/05/27 01:05:17;;;;;;;15.18;3.00;;;12.80;99.90;;;;;;4941507;28;20513;-88
2023/05/27 01:07:59;;;;;;;6.78;3.53;;;12.70;99.90;;;;;;4958136;28;20218;-87
2023/05/27 01:10:49;;;;;;;6.30;3.03;;;12.60;99.90;;;;;;4957738;28;20536;-88
2023/05/27 01:13:28;;;;;;;4.90;2.80;;;12.50;99.90;;;;;;4942215;28;20211;-88
2023/05/27 01:15:59;;;;;;;9.25;2.70;;;12.40;99.90;;;;;;4953192;28;20492;-88
2023/05/27 01:18:29;;;;;;;10.80;3.58;;;12.30;99.90;;;;;;4945752;28;20215;-88
2023/05/27 01:21:03;;;;;;;6.13;3.10;;;12.20;99.90;;;;;;4937318;28;21116;-88
2023/05/27 01:23:29;;;;;;;5.47;2.38;;;12.10;99.90;;;;;;4941866;28;21400;-89
2023/05/27 01:25:54;;;;;;;8.53;3.03;;;11.90;99.90;;;;;;4955188;28;20223;-88
2023/05/27 01:28:20;;;;;;;4.03;2.80;;;11.90;99.90;;;;;;4955673;28;20222;-89
2023/05/27 01:30:45;;;;;;;7.17;2.67;;;11.80;99.90;;;;;;4953058;28;20203;-89
2023/05/27 01:33:20;;;;;;;6.10;3.27;;;11.70;99.90;;;;;;4953353;28;20941;-88
2023/05/27 01:35:50;;;;;;;8.05;3.53;;;11.70;99.90;;;;;;4949360;28;20183;-88
2023/05/27 01:38:19;;;;;;;6.78;2.72;;;11.60;99.90;;;;;;4949857;28;20200;-88
2023/05/27 01:40:47;;;;;;;5.53;3.83;;;11.60;99.90;;;;;;4953113;28;20189;-88
2023/05/27 01:43:15;;;;;;;11.00;2.55;;;11.40;99.90;;;;;;4953163;28;20299;-86
2023/05/27 01:45:41;;;;;;;13.98;3.50;;;11.30;99.90;;;;;;4952899;28;20183;-86
2023/05/27 01:48:09;;;;;;;9.18;3.10;;;11.30;99.90;;;;;;4931540;28;20204;-85
2023/05/27 01:50:35;;;;;;;6.25;2.13;;;11.20;99.90;;;;;;4933341;28;20195;-86
2023/05/27 01:53:00;;;;;;;8.83;3.03;;;11.20;99.90;;;;;;4948698;28;22109;-88
2023/05/27 01:55:27;;;;;;;5.97;3.40;;;11.10;99.90;;;;;;4955559;28;20530;-87
2023/05/27 01:57:52;;;;;;;2.95;2.50;;;11.10;99.90;;;;;;4946484;28;20204;-87
2023/05/27 02:00:19;;;;;;;9.23;2.40;;;;;;;;;;4961400;28;20222;-88
2023/05/27 02:02:44;;;;;;;16.27;4.10;;;11.10;99.90;;;;;;4963702;28;20514;-86
2023/05/27 02:05:10;;;;;;;6.20;2.70;;;11.20;99.90;;;;;;4949201;28;20314;-87
2023/05/27 02:07:36;;;;;;;5.47;3.53;;;11.10;99.90;;;;;;4957140;28;20590;-87
2023/05/27 02:10:02;;;;;;;4.47;2.73;;;;;;;;;;4959396;28;20188;-87
2023/05/27 02:12:27;;;;;;;12.10;3.60;;;11.20;99.90;;;;;;4942374;28;20187;-86
2023/05/27 02:14:53;;;;;;;4.57;2.77;;;;;;;;;;4962084;28;20258;-85
2023/05/27 02:17:19;;;;;;;5.07;2.93;;;11.10;99.90;;;;;;4948140;28;20187;-89
2023/05/27 02:19:45;;;;;;;8.80;2.90;;;11.10;99.90;;;;;;4959255;28;20442;-88
2023/05/27 02:22:10;;;;;;;13.93;3.00;;;11.00;99.90;;;;;;4961337;28;20184;-88
2023/05/27 02:24:36;;;;;;;11.53;3.07;;;11.00;99.90;;;;;;4959927;28;20720;-88
2023/05/27 02:27:02;;;;;;;9.47;3.23;;;11.00;99.90;;;;;;4957627;28;20195;-88
2023/05/27 02:29:27;;;;;;;11.50;3.53;;;12.50;99.90;;;;;;4951323;28;20212;-88
2023/05/27 02:31:53;;;;;;;11.03;2.87;;;10.90;99.90;;;;;;4964713;28;20203;-88
2023/05/27 02:34:18;;;;;;;10.10;3.23;;;10.80;99.90;;;;;;4966043;28;20240;-88
2023/05/27 02:36:44;;;;;;;6.93;3.37;;;10.70;99.90;;;;;;4968859;28;20789;-88
2023/05/27 02:39:10;;;;;;;8.80;2.63;;;10.70;99.90;;;;;;4952706;28;20199;-88
2023/05/27 02:41:36;;;;;;;15.13;3.92;;;11.30;99.90;;;;;;4964750;28;20688;-87
2023/05/27 02:44:02;;;;;;;9.33;2.53;;;10.70;99.90;;;;;;4945609;28;20192;-88
2023/05/27 02:46:28;;;;;;;9.07;2.72;;;10.80;99.90;;;;;;4943762;28;20248;-88
2023/05/27 02:48:53;;;;;;;9.53;3.17;;;10.80;99.90;;;;;;4946537;28;20315;-88
2023/05/27 02:51:18;;;;;;;5.07;3.43;;;10.80;99.90;;;;;;4963457;28;20211;-87
2023/05/27 02:53:44;;;;;;;3.30;2.70;;;10.80;99.90;;;;;;4961788;28;20205;-86
2023/05/27 02:56:10;;;;;;;7.57;2.70;;;10.80;99.90;;;;;;4961998;28;20207;-87
2023/05/27 02:58:35;;;;;;;15.70;3.27;;;10.80;99.90;;;;;;4946951;28;20212;-87
2023/05/27 03:01:01;;;;;;;5.63;3.00;;;10.70;99.90;;;;;;4957227;28;20187;-86
2023/05/27 03:03:26;;;;;;;9.43;2.57;;;10.70;99.90;;;;;;4949631;28;21045;-87
2023/05/27 03:05:52;;;;;;;4.90;2.80;;;10.70;99.90;;;;;;4970198;28;20801;-88
2023/05/27 03:08:18;;;;;;;8.43;2.70;;;;;;;;;;4979311;28;20207;-87
2023/05/27 03:10:43;;;;;;;6.63;2.87;;;10.70;99.90;;;;;;4977124;28;20324;-87
2023/05/27 03:13:09;;;;;;;7.07;2.33;;;10.60;99.90;;;;;;4949984;28;21045;-87
2023/05/27 03:15:35;;;;;;;8.63;3.10;;;;;;;;;;4964944;28;20172;-88
2023/05/27 03:18:03;;;;;;;6.13;3.15;;;10.50;99.90;;;;;;4961468;28;20188;-87
2023/05/27 03:20:29;;;;;;;8.13;3.60;;;10.40;99.90;;;;;;4944958;28;20194;-87
2023/05/27 03:22:55;;;;;;;8.67;3.70;;;10.40;99.90;;;;;;4961978;28;20286;-87
2023/05/27 03:25:20;;;;;;;6.50;3.97;;;10.40;99.90;;;;;;4943777;28;20440;-87
2023/05/27 03:27:46;;;;;;;10.40;3.20;;;10.30;99.90;;;;;;4935476;28;20255;-88
2023/05/27 03:30:12;;;;;;;5.67;3.30;;;10.30;99.90;;;;;;4958213;28;22189;-87
2023/05/27 03:32:37;;;;;;;6.63;3.07;;;10.30;99.90;;;;;;4955944;28;20221;-87
2023/05/27 03:35:03;;;;;;;19.77;3.10;;;10.30;99.90;;;;;;4949643;28;20881;-88
2023/05/27 03:37:29;;;;;;;4.80;2.60;;;;;;;;;;4932604;28;20177;-87
2023/05/27 03:39:55;;;;;;;4.85;2.65;;;10.20;99.90;;;;;;4952890;28;20283;-87
2023/05/27 03:42:20;;;;;;;3.83;2.87;;;10.20;99.90;;;;;;4938190;28;20308;-86
2023/05/27 03:44:46;;;;;;;19.30;2.73;;;10.20;99.90;;;;;;4952732;28;20178;-88
2023/05/27 03:47:12;;;;;;;8.70;3.00;;;;;;;;;;4943668;28;20234;-87
2023/05/27 03:49:38;;;;;;;7.38;3.00;;;;;;;;;;4957744;28;20208;-87
2023/05/27 03:52:04;;;;;;;9.70;3.10;;;10.40;99.90;;;;;;4954549;28;20184;-87
2023/05/27 03:54:29;;;;;;;4.17;2.30;;;10.50;99.90;;;;;;4955792;28;20525;-87
2023/05/27 03:56:55;;;;;;;4.97;2.97;;;10.60;99.90;;;;;;4958456;28;20947;-87
2023/05/27 03:59:21;;;;;;;2.60;2.30;;;10.60;99.90;;;;;;4954313;28;22238;-87
2023/05/27 04:01:47;;;;;;;9.60;2.40;;;10.70;99.90;;;;;;4953884;28;20197;-87
2023/05/27 04:04:13;;;;;;;9.93;2.70;;;10.90;99.90;;;;;;4936406;28;20440;-86
2023/05/27 04:06:38;;;;;;;8.73;2.93;;;10.90;99.90;;;;;;4954577;28;20215;-86
2023/05/27 04:09:04;;;;;;;11.03;2.77;;;11.10;99.90;;;;;;4947399;28;20526;-87
2023/05/27 04:11:30;;;;;;;4.13;2.40;;;11.20;99.90;;;;;;4934674;28;20191;-88
2023/05/27 04:13:56;;;;;;;5.30;2.83;;;11.30;99.90;;;;;;4933272;28;20208;-87
2023/05/27 04:16:30;;;;;;;7.40;2.40;;;11.50;99.90;;;;;;4948833;28;20448;-87
2023/05/27 04:18:56;;;;;;;4.13;2.50;;;11.70;99.90;;;;;;4936286;28;20228;-87
2023/05/27 04:21:22;;;;;;;7.63;2.80;;;12.30;99.90;;;;;;4956855;28;20665;-87
2023/05/27 04:23:48;;;;;;;6.00;2.90;;;13.20;99.90;;;;;;4952335;28;20219;-86
2023/05/27 04:26:14;;;;;;;10.53;3.20;;;14.20;99.90;;;;;;4952377;28;21400;-87
2023/05/27 04:28:40;;;;;;;13.53;3.70;;;15.10;99.90;;;;;;4937580;28;20646;-88
2023/05/27 04:31:12;;;;;;;4.73;2.43;;;16.00;99.90;;;;;;4939451;28;20490;-88
2023/05/27 04:33:39;;;;;;;6.90;2.70;;;17.00;99.90;;;;;;4957429;28;20533;-88
2023/05/27 04:36:06;;;;;;;6.60;3.23;;;18.00;99.90;;;;;;4939783;28;20431;-87
2023/05/27 04:38:31;;;;;;;7.10;2.63;;;19.50;99.90;;;;;;4960506;28;21290;-88
2023/05/27 04:40:58;;;;;;;5.20;2.00;;;;;;;;;;4937806;28;20428;-88
2023/05/27 04:43:26;;;;;;;12.27;3.50;;;20.10;99.90;;;;;;4936993;28;20800;-87
2023/05/27 04:45:51;;;;;;;7.10;2.73;;;20.90;99.90;;;;;;4955222;28;20459;-88
2023/05/27 04:48:17;;;;;;;4.77;2.43;;;21.60;94.90;;;;;;4952469;28;22661;-88
2023/05/27 04:50:42;;;;;;;7.37;2.90;;;22.10;93.20;;;;;;4953345;28;20191;-87
2023/05/27 04:53:09;;;;;;;9.50;2.73;;;;;;;;;;4953715;28;20200;-87
2023/05/27 04:55:35;;;;;;;7.53;2.47;;;;;;;;;;4952913;28;20274;-86
2023/05/27 04:58:03;;;;;;;7.40;2.50;;;23.70;82.50;;;;;;4936412;28;20552;-88
2023/05/27 05:00:38;;;;;;;6.53;2.73;;;;;;;;;;4930222;28;20503;-88
2023/05/27 05:03:05;;;;;;;5.67;2.17;;;25.30;77.30;;;;;;4957371;28;20821;-87
2023/05/27 05:05:32;;;;;;;8.13;3.40;;;;;;;;;;4940191;28;20534;-87
2023/05/27 05:07:58;;;;;;;5.63;2.57;;;;;;;;;;4953227;28;20471;-87
2023/05/27 05:10:24;;;;;;;4.30;2.50;;;;;;;;;;4957839;28;20427;-88
2023/05/27 05:12:50;;;;;;;8.17;3.00;;;;;;;;;;4959182;28;21287;-88
2023/05/27 05:15:15;;;;;;;6.27;2.30;;;25.40;61.30;;;;;;4952041;28;21469;-87
2023/05/27 05:17:41;;;;;;;8.23;2.30;;;;;;;;;;4955081;28;20503;-88
2023/05/27 05:20:08;;;;;;;5.50;2.40;;;26.60;61.60;;;;;;4953506;28;20198;-88
2023/05/27 05:22:34;;;;;;;7.33;2.90;;;26.80;59.00;;;;;;4959561;28;20494;-85
2023/05/27 05:25:00;;;;;;;9.00;3.10;;;;;;;;;;4958289;28;20444;-88
2023/05/27 05:27:27;;;;;;;7.13;3.13;;;28.00;54.90;;;;;;4956843;28;20468;-88
2023/05/27 05:29:53;;;;;;;7.00;2.20;;;;;;;;;;4940273;28;20460;-88
2023/05/27 05:32:19;;;;;;;4.97;2.20;;;;;;;;;;4939695;28;20460;-88
2023/05/27 05:34:45;;;;;;;6.07;2.30;;;;;;;;;;4937709;28;21514;-88
2023/05/27 05:37:11;;;;;;;11.90;3.20;;;;;;;;;;4940006;28;20435;-88
2023/05/27 05:39:37;;;;;;;5.30;2.50;;;;;;;;;;4958026;28;20449;-88
2023/05/27 05:42:04;;;;;;;6.57;3.00;;;;;;;;;;4957290;28;21062;-88
2023/05/27 05:44:30;;;;;;;6.57;2.83;;;27.30;50.80;;;;;;4962250;28;20439;-88
2023/05/27 05:46:56;;;;;;;7.47;3.30;;;;;;;;;;4966322;28;20829;-88
2023/05/27 05:49:22;;;;;;;7.03;3.27;;;;;;;;;;4962155;28;20719;-86
2023/05/27 05:51:48;;;;;;;7.37;3.33;;;;;;;;;;4974597;28;20451;-87
2023/05/27 05:54:14;;;;;;;7.87;2.93;;;;;;;;;;4956579;28;20454;-87
2023/05/27 05:56:40;;;;;;;8.03;2.87;;;;;;;;;;4964152;28;20437;-86
2023/05/27 05:59:06;;;;;;;12.00;3.07;;;;;;;;;;4968645;28;20488;-87
2023/05/27 06:01:31;;;;;;;5.30;3.07;;;28.40;49.30;;;;;;4967220;28;20850;-85
2023/05/27 06:03:59;;;;;;;3.50;2.27;;;;;;;;;;4965209;28;20532;-86
2023/05/27 06:06:24;;;;;;;8.37;3.20;;;26.90;50.00;;;;;;4957874;28;20195;-88
2023/05/27 06:08:50;;;;;;;8.03;2.97;;;;;;;;;;4947219;28;20456;-87
2023/05/27 06:11:16;;;;;;;6.30;1.90;;;;;;;;;;4959085;28;20288;-87
2023/05/27 06:13:42;;;;;;;4.50;2.17;;;;;;;;;;4938853;28;23035;-86
2023/05/27 06:16:08;;;;;;;7.27;3.27;;;;;;;;;;4962131;28;21054;-86
2023/05/27 06:18:34;;;;;;;6.57;2.80;;;;;;;;;;4945720;28;21451;-87
2023/05/27 06:21:00;;;;;;;9.37;3.00;;;;;;;;;;4955076;28;20439;-85
2023/05/27 06:23:26;;;;;;;5.57;3.30;;;;;;;;;;4941511;28;20436;-86
2023/05/27 06:25:52;;;;;;;13.10;3.43;;;;;;;;;;4937749;28;20861;-84
2023/05/27 06:28:18;;;;;;;8.00;2.50;;;;;;;;;;4944765;28;20464;-86
2023/05/27 06:30:44;;;;;;;6.47;3.40;;;;;;;;;;4942304;28;21228;-87
2023/05/27 06:33:10;;;;;;;18.07;4.10;;;;;;;;;;4956437;28;20527;-87
2023/05/27 06:35:36;;;;;;;6.40;2.80;;;;;;;;;;4960338;28;20521;-86
2023/05/27 06:38:02;;;;;;;5.07;2.67;;;;;;;;;;4964244;28;21079;-87
2023/05/27 06:40:28;;;;;;;7.10;2.87;;;;;;;;;;4957731;28;21174;-85
2023/05/27 06:42:54;;;;;;;9.73;3.50;;;;;;;;;;4961366;28;20450;-87
2023/05/27 06:45:20;;;;;;;6.70;2.90;;;;;;;;;;4959776;28;20728;-84
2023/05/27 06:47:46;;;;;;;4.87;2.33;;;;;;;;;;4943919;28;21212;-85
2023/05/27 06:50:12;;;;;;;12.30;3.30;;;;;;;;;;4966307;28;20451;-87
2023/05/27 06:52:38;;;;;;;8.73;3.70;;;;;;;;;;4946291;28;20468;-87
2023/05/27 06:55:05;;;;;;;7.10;2.90;;;27.20;47.40;;;;;;4945891;28;20508;-87
2023/05/27 06:57:30;;;;;;;5.17;2.60;;;28.30;49.30;;;;;;4958524;28;21577;-87
2023/05/27 06:59:56;;;;;;;3.87;3.00;;;;;;;;;;4962845;28;20465;-86
2023/05/27 07:02:22;;;;;;;8.10;2.97;;;;;;;;;;4947747;28;20196;-84
2023/05/27 07:04:48;;;;;;;8.03;2.97;;;;;;;;;;4961055;28;20445;-84
2023/05/27 07:07:14;;;;;;;5.80;2.90;;;;;;;;;;4961557;28;20457;-87
2023/05/27 07:09:41;;;;;;;7.03;3.17;;;;;;;;;;4943631;28;20446;-86
2023/05/27 07:12:06;;;;;;;8.17;3.17;;;28.80;45.60;;;;;;4946659;28;20517;-87
2023/05/27 07:14:32;;;;;;;4.10;2.60;;;;;;;;;;4950680;28;22927;-87
2023/05/27 07:16:58;;;;;;;8.93;3.20;;;;;;;;;;4958073;28;20190;-86
2023/05/27 07:19:24;;;;;;;3.60;2.37;;;;;;;;;;4953232;28;20467;-86
2023/05/27 07:21:50;;;;;;;4.30;3.00;;;;;;;;;;4943789;28;20996;-86
2023/05/27 07:24:17;;;;;;;3.53;1.80;;;;;;;;;;4961868;28;20443;-87
2023/05/27 07:26:43;;;;;;;6.80;3.37;;;;;;;;;;4964360;28;20446;-87
2023/05/27 07:29:09;;;;;;;5.50;3.13;;;;;;;;;;4949465;28;20481;-86
2023/05/27 07:31:35;;;;;;;3.60;2.50;;;;;;;;;;4962772;28;20444;-87
2023/05/27 07:34:00;;;;;;;12.77;4.60;;;;;;;;;;4956908;28;20580;-86
2023/05/27 07:36:26;;;;;;;4.07;3.13;;;;;;;;;;4946556;28;20449;-86
2023/05/27 07:38:52;;;;;;;4.37;3.03;;;;;;;;;;4939675;28;20459;-86
2023/05/27 07:41:18;;;;;;;4.60;3.33;;;;;;;;;;4970722;28;20953;-86
2023/05/27 07:43:44;;;;;;;5.73;2.83;;;;;;;;;;4969392;28;20434;-88
2023/05/27 07:46:10;;;;;;;12.27;4.60;;;;;;;;;;4952868;28;20445;-88
2023/05/27 07:48:36;;;;;;;8.23;3.97;;;;;;;;;;4962106;28;20457;-87
2023/05/27 07:51:02;;;;;;;7.97;3.50;;;;;;;;;;4945766;28;20456;-88
2023/05/27 07:53:28;;;;;;;7.13;3.97;;;;;;;;;;4961218;28;20502;-87
2023/05/27 07:55:54;;;;;;;9.87;4.60;;;;;;;;;;4959305;28;21063;-86
2023/05/27 07:58:20;;;;;;;8.00;3.37;;;;;;;;;;4960828;28;20464;-85
2023/05/27 08:00:46;;;;;;;6.17;3.80;;;;;;;;;;4967418;28;20457;-84
2023/05/27 08:03:12;;;;;;;6.60;3.60;;;;;;;;;;4968249;28;20437;-84
2023/05/27 08:05:38;;;;;;;6.43;3.83;;;;;;;;;;4958758;28;20437;-84
2023/05/27 08:08:04;;;;;;;6.07;4.27;;;;;;;;;;4943647;28;20464;-83
2023/05/27 08:10:30;;;;;;;7.83;3.90;;;;;;;;;;4961318;28;20448;-84
2023/05/27 08:12:56;;;;;;;13.43;5.80;;;;;;;;;;4936549;28;21127;-84
2023/05/27 08:15:22;;;;;;;7.23;3.20;;;;;;;;;;4932063;28;20506;-85
2023/05/27 08:17:48;;;;;;;7.30;4.13;;;;;;;;;;4960496;28;20452;-85
2023/05/27 08:20:14;;;;;;;4.53;4.13;;;;;;;;;;4958754;28;20552;-83
2023/05/27 08:22:42;;;;;;;6.50;4.93;;;31.10;40.50;;;;;;4945695;28;20442;-83
2023/05/27 08:25:07;;;;;;;5.53;4.27;;;30.60;45.00;;;;;;4953559;28;20463;-84
2023/05/27 08:27:57;;;;;;;5.60;3.80;;;31.20;42.40;;;;;;4965609;28;20435;-82
2023/05/27 08:30:22;;;;;;;8.23;5.07;;;31.40;43.20;;;;;;4981918;28;20187;-83
2023/05/27 08:32:48;;;;;;;11.87;4.57;;;31.30;42.10;;;;;;4975661;28;20497;-85
2023/05/27 08:35:14;;;;;;;6.30;4.53;;;31.00;43.60;;;;;;4953950;28;20448;-86
2023/05/27 08:37:40;;;;;;;6.10;4.50;;;;;;;;;;4964936;28;20210;-84
2023/05/27 08:40:18;;;;;;;7.70;4.27;;;31.30;44.00;;;;;;4965598;28;20426;-84
2023/05/27 08:42:44;;;;;;;5.00;3.20;;;;;;;;;;4967731;28;20438;-85
2023/05/27 08:45:10;;;;;;;8.10;4.63;;;31.40;42.80;;;;;;4960989;28;20436;-85
2023/05/27 08:47:38;;;;;;;8.30;4.20;;;31.50;41.90;;;;;;4962401;28;20487;-85
2023/05/27 08:50:04;;;;;;;16.13;5.60;;;30.50;40.70;;;;;;4966787;28;20435;-86
2023/05/27 08:52:31;;;;;;;14.30;5.00;;;;;;;;;;4964001;28;20462;-83
2023/05/27 08:54:57;;;;;;;9.50;3.93;;;29.20;42.30;;;;;;4954361;28;20462;-84
2023/05/27 08:57:32;;;;;;;8.97;4.13;;;30.50;44.40;;;;;;4962763;28;20438;-84
2023/05/27 08:59:59;;;;;;;11.10;5.90;;;;;;;;;;4954741;28;20436;-84
2023/05/27 09:02:26;;;;;;;9.90;3.97;;;30.50;44.10;;;;;;4951510;28;20440;-83
2023/05/27 09:04:52;;;;;;;9.63;4.80;;;;;;;;;;4956562;28;20451;-84
2023/05/27 09:07:21;;;;;;;6.60;4.57;;;31.00;41.70;;;;;;4939458;28;20440;-82
2023/05/27 09:09:57;;;;;;;6.23;4.47;;;31.20;42.90;;;;;;4955074;28;20463;-84
2023/05/27 09:12:25;;;;;;;8.83;5.80;;;30.20;43.60;;;;;;4956612;28;20442;-83
2023/05/27 09:14:51;;;;;;;9.70;4.97;;;;;;;;;;4954837;28;20458;-84
2023/05/27 09:17:17;;;;;;;8.33;4.37;;;;;;;;;;4950818;28;20540;-84
2023/05/27 09:19:45;;;;;;;9.20;4.27;;;30.10;45.20;;;;;;4953200;28;20462;-83
2023/05/27 09:22:23;;;;;;;8.80;4.60;;;30.50;44.70;;;;;;4939736;28;20429;-81
2023/05/27 09:24:49;;;;;;;9.60;4.87;;;;;;;;;;4957191;28;20439;-86
2023/05/27 09:27:15;;;;;;;8.27;4.10;;;;;;;;;;4966755;28;20423;-86
2023/05/27 09:29:41;;;;;;;7.13;3.83;;;;;;;;;;4963503;28;20472;-83
2023/05/27 09:32:08;;;;;;;9.43;4.90;;;;;;;;;;4955510;28;20478;-85
2023/05/27 09:34:40;;;;;;;5.90;4.20;;;29.30;44.90;;;;;;4943265;28;20497;-84
2023/05/27 09:37:13;;;;;;;10.30;4.33;;;28.80;46.90;;;;;;4955898;28;20429;-86
2023/05/27 09:39:39;;;;;;;16.27;4.57;;;;;;;;;;4965960;28;20447;-85
2023/05/27 09:42:07;;;;;;;5.90;3.90;;;;;;;;;;4964650;28;20432;-85
2023/05/27 09:44:40;;;;;;;9.40;4.07;;;29.20;45.80;;;;;;4942758;28;20443;-85
2023/05/27 09:47:07;;;;;;;11.50;4.27;;;28.60;46.70;;;;;;4954175;28;20529;-86
2023/05/27 09:49:35;;;;;;;11.80;4.33;;;;;;;;;;4961333;28;20484;-86
2023/05/27 09:52:02;;;;;;;9.50;4.40;;;29.60;47.20;;;;;;4964751;28;20472;-85
2023/05/27 09:54:28;;;;;;;14.43;4.60;;;;;;;;;;4964923;28;20468;-84
2023/05/27 09:56:54;;;;;;;7.50;4.00;;;;;;;;;;4937494;28;20536;-83
2023/05/27 09:59:20;;;;;;;7.43;4.07;;;;;;;;;;4955476;28;20454;-84
2023/05/27 10:01:50;;;;;;;5.93;4.47;;;;;;;;;;4957179;28;20439;-85
2023/05/27 10:04:16;;;;;;;7.67;4.43;;;;;;;;;;4955241;28;20450;-86
2023/05/27 10:06:44;;;;;;;10.80;4.70;;;30.00;47.40;;;;;;4956128;28;20476;-87
2023/05/27 10:09:10;;;;;;;7.40;4.20;;;;;;;;;;4957549;28;20460;-87
2023/05/27 10:11:37;;;;;;;20.60;6.80;;;28.90;47.80;;;;;;4933788;28;20532;-87
2023/05/27 10:14:03;;;;;;;8.10;4.87;;;;;;;;;;4930989;28;20470;-86
2023/05/27 10:16:29;;;;;;;7.57;3.90;;;28.40;46.70;;;;;;4942679;28;20566;-86
2023/05/27 10:18:56;;;;;;;5.43;4.43;;;29.00;48.90;;;;;;4953816;28;20580;-85
2023/05/27 10:21:27;;;;;;;9.03;4.20;;;28.80;46.30;;;;;;4959633;28;20191;-85
2023/05/27 10:24:00;;;;;;;8.80;5.47;;;28.10;47.80;;;;;;4957706;28;20483;-86
2023/05/27 10:27:00;;;;;;;13.00;4.80;;;28.00;48.40;;;;;;4958234;28;20444;-85
2023/05/27 10:29:39;;;;;;;24.13;6.33;;;27.50;49.20;;;;;;4960978;28;20473;-84
2023/05/27 10:32:05;;;;;;;5.90;3.73;;;26.20;50.20;;;;;;4959559;28;20466;-83
2023/05/27 10:34:41;;;;;;;7.40;3.87;;;27.00;53.50;;;;;;4960642;28;20509;-84
2023/05/27 10:37:07;;;;;;;6.93;4.13;;;24.90;54.90;;;;;;4963602;28;20521;-84
2023/05/27 10:39:33;;;;;;;4.80;3.60;;;24.20;54.70;;;;;;4960092;28;20538;-83
2023/05/27 10:41:58;;;;;;;8.03;3.50;;;23.90;55.10;;;;;;4952357;28;20206;-84
2023/05/27 10:44:39;;;;;;;8.33;4.27;;;23.90;56.70;;;;;;4968241;28;20496;-83
2023/05/27 10:47:10;;;;;;;11.50;3.77;;;23.90;56.90;;;;;;4964088;28;20199;-85
2023/05/27 10:49:38;;;;;;;10.30;3.60;;;23.30;56.70;;;;;;4959294;28;20490;-85
2023/05/27 10:52:10;;;;;;;9.63;3.10;;;22.90;60.80;;;;;;4960529;28;20440;-86
2023/05/27 10:54:37;;;;;;;5.90;3.00;;;23.00;59.60;;;;;;4933405;28;20777;-87
2023/05/27 10:57:03;;;;;;;5.80;3.53;;;;;;;;;;4955449;28;20530;-84
2023/05/27 10:59:36;;;;;;;4.37;3.50;;;23.20;62.00;;;;;;4957974;28;20454;-87
2023/05/27 11:02:03;;;;;;;7.93;3.40;;;23.30;60.40;;;;;;4957011;28;20470;-85
2023/05/27 11:04:37;;;;;;;5.93;3.43;;;23.30;61.10;;;;;;4955589;28;20456;-84
2023/05/27 11:07:04;;;;;;;8.53;3.63;;;23.50;59.90;;;;;;4951805;28;20431;-86
2023/05/27 11:09:45;;;;;;;10.30;3.93;;;23.50;59.90;;;;;;4946433;28;20486;-84
2023/05/27 11:12:17;;;;;;;7.50;3.77;;;23.80;59.30;;;;;;4948066;28;20475;-87
2023/05/27 11:14:50;;;;;;;8.50;3.47;;;23.70;58.20;;;;;;4949760;28;20459;-87
2023/05/27 11:17:17;;;;;;;4.90;3.10;;;;;;;;;;4950115;28;20447;-87
2023/05/27 11:19:45;;;;;;;7.47;3.70;;;23.50;58.80;;;;;;4933288;28;20467;-87
2023/05/27 11:22:11;;;;;;;8.40;3.30;;;23.20;57.00;;;;;;4936035;28;20444;-87
2023/05/27 11:24:37;;;;;;;8.47;3.63;;;23.20;58.20;;;;;;4946052;28;20441;-85
2023/05/27 11:27:10;;;;;;;7.80;2.90;;;23.40;60.00;;;;;;4955323;28;20451;-84
2023/05/27 11:29:40;;;;;;;8.10;2.77;;;23.60;59.30;;;;;;4931329;28;20230;-86
2023/05/27 11:32:06;;;;;;;5.57;3.63;;;23.80;57.80;;;;;;4951607;28;21112;-85
2023/05/27 11:34:34;;;;;;;6.40;3.10;;;23.70;57.90;;;;;;4940231;28;20464;-85
2023/05/27 11:37:04;;;;;;;5.57;3.50;;;23.70;58.30;;;;;;4955350;28;21002;-85
2023/05/27 11:39:30;;;;;;;3.53;2.80;;;24.00;56.80;;;;;;4949049;28;21514;-85
2023/05/27 11:41:56;;;;;;;11.07;3.60;;;;;;;;;;4950649;28;20573;-85
2023/05/27 11:44:23;;;;;;;9.70;3.20;;;23.90;57.20;;;;;;4950884;28;20524;-85
2023/05/27 11:46:50;;;;;;;7.67;3.63;;;23.70;57.20;;;;;;4944393;28;20816;-85
2023/05/27 11:49:17;;;;;;;6.50;3.87;;;23.60;56.40;;;;;;4934990;28;20470;-83
2023/05/27 11:51:45;;;;;;;5.90;3.80;;;23.60;57.10;;;;;;4925921;28;20452;-86
2023/05/27 11:54:27;;;;;;;5.83;3.77;;;23.60;56.50;;;;;;4949747;28;20458;-85
2023/05/27 11:56:56;;;;;;;6.47;4.13;;;23.60;55.80;;;;;;4956409;28;20549;-86
2023/05/27 11:59:23;;;;;;;5.63;3.00;;;23.50;56.90;;;;;;4954583;28;20976;-85
2023/05/27 12:01:51;;;;;;;6.73;3.30;;;23.70;56.40;;;;;;4935576;28;20446;-85
2023/05/27 12:04:17;;;;;;;22.13;4.57;;;23.70;56.10;;;;;;4938207;28;20443;-86
2023/05/27 12:06:45;;;;;;;4.80;2.80;;;23.70;56.30;;;;;;4948728;28;20483;-85
2023/05/27 12:09:10;;;;;;;7.53;3.47;;;23.60;56.70;;;;;;4950959;28;21390;-87
2023/05/27 12:11:37;;;;;;;5.80;3.67;;;;;;;;;;4954336;28;20533;-86
2023/05/27 12:14:03;;;;;;;5.27;3.63;;;23.90;53.90;;;;;;4946253;28;20580;-85
2023/05/27 12:16:29;;;;;;;8.60;2.87;;;;;;;;;;4951083;28;20440;-84
2023/05/27 12:18:54;;;;;;;6.77;3.33;;;23.90;55.80;;;;;;4951021;28;20471;-86
2023/05/27 12:21:23;;;;;;;6.67;3.00;;;24.00;56.40;;;;;;4944890;28;20478;-85
2023/05/27 12:23:49;;;;;;;5.53;3.50;;;;;;;;;;4941915;28;20195;-85
2023/05/27 12:26:16;;;;;;;6.97;3.70;;;24.00;53.60;;;;;;4958840;28;20427;-86
2023/05/27 12:28:42;;;;;;;9.27;3.47;;;24.00;54.10;;;;;;4956317;28;20495;-86
2023/05/27 12:31:08;;;;;;;9.87;3.57;;;;;;;;;;4936110;28;20459;-87
2023/05/27 12:33:33;;;;;;;6.40;3.80;;;24.30;53.30;;;;;;4945770;28;20472;-86
2023/05/27 12:36:00;;;;;;;5.90;3.20;;;24.30;54.80;;;;;;4953073;28;20699;-86
2023/05/27 12:38:25;;;;;;;6.33;3.30;;;24.30;53.30;;;;;;4953831;28;20212;-86
2023/05/27 12:40:51;;;;;;;9.63;3.97;;;;;;;;;;4956302;28;20442;-86
2023/05/27 12:43:18;;;;;;;7.30;3.80;;;24.00;53.10;;;;;;4940793;28;20192;-85
2023/05/27 12:45:44;;;;;;;7.97;4.20;;;23.80;54.80;;;;;;4955017;28;20458;-86
2023/05/27 12:48:11;;;;;;;7.43;3.23;;;23.70;56.00;;;;;;4950106;28;20497;-86
2023/05/27 12:50:36;;;;;;;6.80;4.50;;;23.90;54.10;;;;;;4950252;28;20488;-87
2023/05/27 12:53:03;;;;;;;6.97;3.33;;;;;;;;;;4955274;28;20885;-87
2023/05/27 12:55:29;;;;;;;10.90;4.70;;;23.80;53.30;;;;;;4955786;28;20184;-88
2023/05/27 12:57:55;;;;;;;9.40;4.57;;;24.00;53.80;;;;;;4953806;28;20472;-87
2023/05/27 13:00:21;;;;;;;10.13;3.60;;;24.10;52.90;;;;;;4943430;28;20482;-88
2023/05/27 13:02:48;;;;;;;6.90;3.50;;;;;;;;;;4944996;28;20184;-87
2023/05/27 13:05:14;;;;;;;7.10;4.20;;;;;;;;;;4953344;28;20442;-88
2023/05/27 13:07:41;;;;;;;7.27;3.43;;;;;;;;;;4952485;28;20517;-88
2023/05/27 13:10:18;;;;;;;9.90;3.30;;;24.30;52.90;;;;;;4958610;28;20439;-89
2023/05/27 13:12:44;;;;;;;6.93;3.40;;;;;;;;;;4940531;28;20580;-89
2023/05/27 13:15:10;;;;;;;6.10;3.47;;;24.40;53.60;;;;;;4937713;28;20435;-88
2023/05/27 13:17:36;;;;;;;6.30;3.93;;;;;;;;;;4958718;28;20438;-89
2023/05/27 13:20:02;;;;;;;8.10;4.97;;;;;;;;;;4941528;28;20813;-89
2023/05/27 13:22:28;;;;;;;7.77;3.50;;;;;;;;;;4943644;28;20490;-88
2023/05/27 13:24:55;;;;;;;7.43;3.73;;;24.30;53.50;;;;;;4929179;28;20435;-88